Time;durP1;ratioP1;P1;durP2;ratioP2;P2;SDS_P1;SDS_P2;PMS_P1;PMS_P2;Temp;Humidity;BMP_temperature;BMP_pressure;BME280_temperature;BME280_humidity;BME280_pressure;Samples;Min_cycle;Max_cycle;Signal;HPM_P1;HPM_P2
2022/03/02 00:00:51;;;;;;;25.60;21.20;;;3.90;99.90;;;;;;5999981;24;20410;-81
2022/03/02 00:03:39;;;;;;;25.30;20.90;;;3.80;99.90;;;;;;5999062;24;20448;-80
2022/03/02 00:06:28;;;;;;;24.00;20.80;;;3.80;99.90;;;;;;5998798;24;20483;-80
2022/03/02 00:09:17;;;;;;;25.30;20.50;;;3.80;99.90;;;;;;5999211;24;21020;-81
2022/03/02 00:12:06;;;;;;;24.33;19.90;;;3.70;99.90;;;;;;5997216;24;20443;-82
2022/03/02 00:14:54;;;;;;;28.57;22.83;;;3.70;99.90;;;;;;5998545;24;20447;-80
2022/03/02 00:17:43;;;;;;;23.77;20.33;;;3.60;99.90;;;;;;5999206;24;20463;-81
2022/03/02 00:20:31;;;;;;;24.90;20.10;;;3.60;99.90;;;;;;6001446;24;20688;-81
2022/03/02 00:23:19;;;;;;;27.83;21.20;;;3.60;99.90;;;;;;6000015;24;20510;-80
2022/03/02 00:26:12;;;;;;;27.90;21.70;;;3.60;99.90;;;;;;6000920;24;20439;-81
2022/03/02 00:29:01;;;;;;;25.00;20.80;;;3.50;99.90;;;;;;5999320;24;20406;-82
2022/03/02 00:31:49;;;;;;;26.43;22.47;;;3.50;99.90;;;;;;6001453;24;20454;-82
2022/03/02 00:34:37;;;;;;;25.10;20.23;;;3.40;99.90;;;;;;6003534;24;20458;-82
2022/03/02 00:37:26;;;;;;;26.43;19.70;;;3.50;99.90;;;;;;6002443;23;20470;-82
2022/03/02 00:40:14;;;;;;;24.50;19.93;;;3.40;99.90;;;;;;6000462;24;20443;-80
2022/03/02 00:43:04;;;;;;;26.77;20.87;;;3.40;99.90;;;;;;5999056;24;20987;-82
2022/03/02 00:45:53;;;;;;;24.90;20.97;;;3.40;99.90;;;;;;6003986;23;20623;-83
2022/03/02 00:48:42;;;;;;;26.37;21.57;;;3.40;99.90;;;;;;6003413;24;20534;-84
2022/03/02 00:51:31;;;;;;;29.13;21.07;;;3.40;99.90;;;;;;6004450;23;20470;-80
2022/03/02 00:54:20;;;;;;;24.90;21.80;;;3.40;99.90;;;;;;6001978;23;20473;-87
2022/03/02 00:57:09;;;;;;;28.47;21.13;;;3.40;99.90;;;;;;6012127;23;20433;-82
2022/03/02 01:00:00;;;;;;;28.50;21.50;;;3.40;99.90;;;;;;6002182;23;20419;-80
2022/03/02 01:02:48;;;;;;;24.90;20.23;;;3.50;99.90;;;;;;5998263;24;20457;-81
2022/03/02 01:05:40;;;;;;;24.37;20.93;;;3.50;99.90;;;;;;6002336;24;20434;-81
2022/03/02 01:08:31;;;;;;;27.70;23.60;;;3.40;99.90;;;;;;6002338;24;20813;-81
2022/03/02 01:11:19;;;;;;;27.53;21.77;;;3.40;99.90;;;;;;5999553;24;20418;-81
2022/03/02 01:14:08;;;;;;;30.27;22.20;;;3.40;99.90;;;;;;6000655;24;20469;-81
2022/03/02 01:16:59;;;;;;;26.47;21.77;;;3.50;99.90;;;;;;6000923;24;20422;-82
2022/03/02 01:19:51;;;;;;;29.20;22.27;;;3.40;99.90;;;;;;6002331;24;20415;-81
2022/03/02 01:22:40;;;;;;;32.70;22.83;;;3.40;99.90;;;;;;5979213;24;20514;-80
2022/03/02 01:25:28;;;;;;;33.00;23.17;;;3.40;99.90;;;;;;6001627;24;20443;-83
2022/03/02 01:28:17;;;;;;;28.33;22.17;;;3.40;99.90;;;;;;6001113;23;20433;-80
2022/03/02 01:31:05;;;;;;;26.50;22.20;;;3.40;99.90;;;;;;6001197;23;20483;-84
2022/03/02 01:33:56;;;;;;;27.60;22.60;;;3.40;99.90;;;;;;6000694;23;20454;-81
2022/03/02 01:36:45;;;;;;;30.53;23.47;;;3.30;99.90;;;;;;6003180;23;20421;-83
2022/03/02 01:39:37;;;;;;;27.70;22.23;;;3.40;99.90;;;;;;6001180;23;20438;-83
2022/03/02 01:42:25;;;;;;;27.50;22.47;;;3.40;99.90;;;;;;6011194;23;20462;-84
2022/03/02 01:45:17;;;;;;;28.57;22.20;;;3.30;99.90;;;;;;5974072;23;20423;-85
2022/03/02 01:48:06;;;;;;;26.63;20.93;;;3.30;99.90;;;;;;5975904;23;20444;-83
2022/03/02 01:50:55;;;;;;;27.70;21.93;;;3.40;99.90;;;;;;5972113;23;20809;-83
2022/03/02 01:53:44;;;;;;;27.60;21.37;;;3.40;99.90;;;;;;5983618;23;20446;-84
2022/03/02 01:56:34;;;;;;;26.57;21.67;;;3.40;99.90;;;;;;6000893;24;20419;-83
2022/03/02 01:59:23;;;;;;;30.60;22.73;;;3.40;99.90;;;;;;6000390;23;20453;-84
2022/03/02 02:02:14;;;;;;;29.10;22.43;;;3.40;99.90;;;;;;6002928;23;20526;-84
2022/03/02 02:05:05;;;;;;;27.63;21.97;;;3.40;99.90;;;;;;6001690;24;20426;-82
2022/03/02 02:07:55;;;;;;;27.13;22.17;;;3.40;99.90;;;;;;6002035;23;20425;-84
2022/03/02 02:10:44;;;;;;;31.30;22.50;;;3.30;99.90;;;;;;6001012;23;20410;-84
2022/03/02 02:13:34;;;;;;;27.73;21.00;;;3.30;99.90;;;;;;5999028;24;20447;-81
2022/03/02 02:16:23;;;;;;;30.30;23.07;;;3.30;99.90;;;;;;5999374;24;20414;-81
2022/03/02 02:19:14;;;;;;;30.80;23.43;;;3.30;99.90;;;;;;5999516;23;20466;-80
2022/03/02 02:22:04;;;;;;;29.50;22.53;;;3.30;99.90;;;;;;5999843;23;20493;-82
2022/03/02 02:24:52;;;;;;;28.17;21.43;;;3.30;99.90;;;;;;5995680;23;20439;-79
2022/03/02 02:27:44;;;;;;;26.90;21.90;;;3.30;99.90;;;;;;5999247;24;20418;-81
2022/03/02 02:30:32;;;;;;;27.70;20.70;;;3.30;99.90;;;;;;6012082;23;20442;-82
2022/03/02 02:33:24;;;;;;;27.90;22.17;;;3.30;99.90;;;;;;6006700;24;20455;-82
2022/03/02 02:36:12;;;;;;;29.63;21.37;;;3.30;99.90;;;;;;6003380;23;20439;-81
2022/03/02 02:39:02;;;;;;;29.93;23.00;;;3.30;99.90;;;;;;6003115;23;20470;-81
2022/03/02 02:41:50;;;;;;;26.93;21.50;;;3.20;99.90;;;;;;6004020;23;20438;-82
2022/03/02 02:44:39;;;;;;;31.60;21.80;;;3.30;99.90;;;;;;6004226;23;20482;-84
2022/03/02 02:47:27;;;;;;;28.20;21.80;;;3.30;99.90;;;;;;6003112;23;20407;-82
2022/03/02 02:50:18;;;;;;;28.60;20.87;;;3.30;99.90;;;;;;6002524;23;20414;-81
2022/03/02 02:53:08;;;;;;;28.63;21.90;;;3.30;99.90;;;;;;5999054;24;20454;-80
2022/03/02 02:55:58;;;;;;;27.87;20.90;;;3.30;99.90;;;;;;6001355;24;20422;-80
2022/03/02 02:58:47;;;;;;;26.77;21.17;;;3.30;99.90;;;;;;6002975;23;20488;-82
2022/03/02 03:01:38;;;;;;;28.20;21.10;;;3.20;99.90;;;;;;6002795;23;20492;-84
2022/03/02 03:04:26;;;;;;;28.57;21.53;;;3.20;99.90;;;;;;6002619;24;20461;-82
2022/03/02 03:07:17;;;;;;;27.90;22.00;;;3.20;99.90;;;;;;6003253;24;20402;-79
2022/03/02 03:10:06;;;;;;;28.77;20.67;;;3.10;99.90;;;;;;6001367;24;20403;-84
2022/03/02 03:12:56;;;;;;;26.50;21.10;;;3.10;99.90;;;;;;6002333;23;20468;-82
2022/03/02 03:15:46;;;;;;;27.23;21.50;;;3.20;99.90;;;;;;6002201;24;20439;-81
2022/03/02 03:18:34;;;;;;;27.83;20.40;;;3.10;99.90;;;;;;6003116;24;20425;-82
2022/03/02 03:21:25;;;;;;;25.40;20.33;;;3.10;99.90;;;;;;6001573;23;20417;-81
2022/03/02 03:24:13;;;;;;;26.90;20.10;;;3.10;99.90;;;;;;6004799;24;20550;-79
2022/03/02 03:27:02;;;;;;;28.43;21.10;;;3.10;99.90;;;;;;6003352;23;20486;-81
2022/03/02 03:29:52;;;;;;;24.43;18.97;;;3.10;99.90;;;;;;6001313;24;20403;-81
2022/03/02 03:32:40;;;;;;;25.00;19.20;;;3.10;99.90;;;;;;6010583;23;20501;-81
2022/03/02 03:35:29;;;;;;;24.30;18.97;;;3.10;99.90;;;;;;6003103;23;20435;-81
2022/03/02 03:38:17;;;;;;;24.60;19.57;;;3.10;99.90;;;;;;5999452;24;20419;-80
2022/03/02 03:41:06;;;;;;;21.73;19.33;;;3.10;99.90;;;;;;6001036;24;20411;-81
2022/03/02 03:43:54;;;;;;;25.20;19.30;;;3.10;99.90;;;;;;5999133;23;20479;-81
2022/03/02 03:46:43;;;;;;;25.93;20.13;;;3.10;99.90;;;;;;6000348;24;20953;-82
2022/03/02 03:49:32;;;;;;;24.03;19.40;;;3.00;99.90;;;;;;6010165;23;20434;-82
2022/03/02 03:52:20;;;;;;;22.63;18.27;;;3.00;99.90;;;;;;5998722;24;20430;-81
2022/03/02 03:55:11;;;;;;;24.27;19.17;;;2.90;99.90;;;;;;5971086;24;20862;-82
2022/03/02 03:57:59;;;;;;;25.60;19.10;;;2.90;99.90;;;;;;5975807;24;20493;-82
2022/03/02 04:00:47;;;;;;;25.23;19.93;;;2.80;99.90;;;;;;5972916;24;20459;-81
2022/03/02 04:03:38;;;;;;;27.00;20.47;;;2.80;99.90;;;;;;5971700;24;20451;-80
2022/03/02 04:06:26;;;;;;;23.80;20.10;;;2.80;99.90;;;;;;5973880;24;20423;-81
2022/03/02 04:09:14;;;;;;;24.70;19.40;;;2.70;99.90;;;;;;5974954;23;20470;-81
2022/03/02 04:12:04;;;;;;;23.70;19.47;;;2.70;99.90;;;;;;5973184;23;20463;-82
2022/03/02 04:14:52;;;;;;;26.40;20.00;;;2.70;99.90;;;;;;5997476;24;20453;-81
2022/03/02 04:17:41;;;;;;;25.07;19.97;;;2.70;99.90;;;;;;5997365;24;20976;-83
2022/03/02 04:20:30;;;;;;;27.13;20.40;;;2.60;99.90;;;;;;6006756;24;20776;-82
2022/03/02 04:23:19;;;;;;;24.27;19.07;;;2.60;99.90;;;;;;5998232;24;20484;-81
2022/03/02 04:26:07;;;;;;;27.63;19.83;;;2.60;99.90;;;;;;5995663;24;20423;-81
2022/03/02 04:28:56;;;;;;;27.40;20.00;;;2.60;99.90;;;;;;5997295;24;20418;-81
2022/03/02 04:31:44;;;;;;;26.60;20.27;;;2.60;99.90;;;;;;5993952;24;20454;-82
2022/03/02 04:34:35;;;;;;;28.83;20.90;;;2.60;99.90;;;;;;5996495;24;20446;-81
2022/03/02 04:37:24;;;;;;;27.53;21.03;;;2.50;99.90;;;;;;5996961;24;20431;-83
2022/03/02 04:40:13;;;;;;;26.20;20.03;;;2.40;99.90;;;;;;5995501;24;20439;-82
2022/03/02 04:43:02;;;;;;;26.57;19.80;;;2.50;99.90;;;;;;5995661;24;20460;-82
2022/03/02 04:45:50;;;;;;;27.27;19.83;;;2.40;99.90;;;;;;5996252;24;20705;-81
2022/03/02 04:48:39;;;;;;;24.70;19.20;;;2.40;99.90;;;;;;6005023;24;20423;-83
2022/03/02 04:51:27;;;;;;;26.70;19.50;;;2.40;99.90;;;;;;5996996;24;20534;-84
2022/03/02 04:57:24;;;;;;;25.83;19.40;;;2.20;99.90;;;;;;5970849;24;20487;-83
2022/03/02 05:00:15;;;;;;;26.43;20.30;;;2.20;99.90;;;;;;5969434;24;20511;-82
2022/03/02 05:03:06;;;;;;;24.93;21.00;;;2.20;99.90;;;;;;5967653;24;20510;-82
2022/03/02 05:05:55;;;;;;;25.27;20.43;;;2.20;99.90;;;;;;5970297;24;20452;-83
2022/03/02 05:08:43;;;;;;;27.30;20.07;;;2.10;99.90;;;;;;5971896;24;20447;-84
2022/03/02 05:11:33;;;;;;;24.10;19.17;;;2.10;99.90;;;;;;5971308;24;20435;-83
2022/03/02 05:14:21;;;;;;;26.00;21.17;;;2.10;99.90;;;;;;5970578;24;20480;-81
2022/03/02 05:17:37;;;;;;;26.27;19.80;;;2.00;99.90;;;;;;5972935;24;20458;-80
2022/03/02 05:20:43;;;;;;;27.40;20.20;;;2.00;99.90;;;;;;5970360;24;20447;-82
2022/03/02 05:23:32;;;;;;;24.57;20.03;;;2.00;99.90;;;;;;5968582;24;20467;-83
2022/03/02 05:26:20;;;;;;;26.57;19.97;;;2.00;99.90;;;;;;5972627;24;20498;-82
2022/03/02 05:29:09;;;;;;;28.67;20.97;;;1.90;99.90;;;;;;5971259;24;20488;-81
2022/03/02 05:31:58;;;;;;;28.40;20.33;;;1.90;99.90;;;;;;5979278;24;20446;-82
2022/03/02 05:34:46;;;;;;;29.20;20.30;;;1.80;99.90;;;;;;5973633;24;20467;-81
2022/03/02 05:37:34;;;;;;;26.00;20.57;;;1.80;99.90;;;;;;5970410;24;20416;-82
2022/03/02 05:40:23;;;;;;;28.10;21.47;;;1.80;99.90;;;;;;5972913;24;20450;-85
2022/03/02 05:43:12;;;;;;;26.67;21.23;;;1.80;99.90;;;;;;5968160;24;20455;-82
2022/03/02 05:46:02;;;;;;;28.27;20.20;;;1.80;99.90;;;;;;5967339;24;20463;-81
2022/03/02 05:48:52;;;;;;;25.80;20.70;;;1.80;99.90;;;;;;5969183;24;20420;-84
2022/03/02 05:51:41;;;;;;;25.00;19.00;;;1.70;99.90;;;;;;5971472;24;20507;-85
2022/03/02 05:54:30;;;;;;;28.57;22.00;;;1.60;99.90;;;;;;5992228;24;20450;-82
2022/03/02 05:57:19;;;;;;;27.40;21.50;;;1.60;99.90;;;;;;6000518;24;20418;-81
2022/03/02 06:00:08;;;;;;;28.37;21.60;;;1.60;99.90;;;;;;6000722;23;20469;-85
2022/03/02 06:02:58;;;;;;;26.57;20.40;;;1.60;99.90;;;;;;6002861;23;20427;-87
2022/03/02 06:05:50;;;;;;;28.63;20.77;;;1.60;99.90;;;;;;5972641;23;20431;-84
2022/03/02 06:08:46;;;;;;;29.23;21.30;;;1.60;99.90;;;;;;5975275;23;20411;-85
2022/03/02 06:11:38;;;;;;;29.10;21.23;;;1.50;99.90;;;;;;5971468;23;20473;-81
2022/03/02 06:14:27;;;;;;;28.00;20.90;;;1.60;99.90;;;;;;5969281;24;20507;-81
2022/03/02 06:17:16;;;;;;;24.60;19.53;;;1.50;99.90;;;;;;5972715;23;20452;-83
2022/03/02 06:20:11;;;;;;;26.97;20.00;;;1.50;99.90;;;;;;5970614;23;20423;-85
2022/03/02 06:23:02;;;;;;;31.03;22.27;;;1.50;99.90;;;;;;5974624;24;20450;-85
2022/03/02 06:25:51;;;;;;;26.77;21.17;;;1.40;99.90;;;;;;5970210;24;20419;-84
2022/03/02 06:28:47;;;;;;;26.30;21.10;;;1.40;99.90;;;;;;5974769;23;20440;-88
2022/03/02 06:31:42;;;;;;;28.20;20.70;;;1.40;99.90;;;;;;5974569;23;20411;-85
2022/03/02 06:34:33;;;;;;;26.70;20.50;;;1.40;99.90;;;;;;5996220;23;20494;-86
2022/03/02 06:37:24;;;;;;;28.37;21.00;;;1.40;99.90;;;;;;6000457;23;20443;-86
2022/03/02 06:40:14;;;;;;;25.40;20.73;;;1.40;99.90;;;;;;6001872;23;20427;-84
2022/03/02 06:43:08;;;;;;;29.23;22.17;;;1.30;99.90;;;;;;6000973;23;20450;-81
2022/03/02 06:46:00;;;;;;;27.83;21.20;;;1.30;99.90;;;;;;6000114;24;20438;-86
2022/03/02 06:48:57;;;;;;;27.43;21.13;;;1.40;99.90;;;;;;5977177;24;20461;-83
2022/03/02 06:51:48;;;;;;;31.97;21.07;;;1.30;99.90;;;;;;5999280;23;20526;-81
2022/03/02 06:54:43;;;;;;;30.17;22.20;;;1.30;99.90;;;;;;5975233;24;20464;-83
2022/03/02 06:57:31;;;;;;;26.23;21.23;;;1.30;99.90;;;;;;5967843;24;20461;-79
2022/03/02 07:00:27;;;;;;;27.97;21.37;;;1.30;99.90;;;;;;5970073;23;20407;-87
2022/03/02 07:03:18;;;;;;;32.20;22.03;;;1.40;99.90;;;;;;5973394;24;20466;-88
2022/03/02 07:06:16;;;;;;;30.00;21.07;;;1.40;99.90;;;;;;5993279;23;20402;-90
2022/03/02 07:09:10;;;;;;;28.10;21.37;;;1.40;99.90;;;;;;6001476;23;20489;-91
2022/03/02 07:12:06;;;;;;;28.87;22.00;;;1.40;99.90;;;;;;6002218;23;20562;-90
2022/03/02 07:14:56;;;;;;;28.43;22.27;;;1.50;99.90;;;;;;5999861;23;20518;-90
2022/03/02 07:17:45;;;;;;;28.53;22.43;;;1.60;99.90;;;;;;6010852;23;20402;-91
2022/03/02 07:20:42;;;;;;;32.00;24.00;;;1.60;99.90;;;;;;6002296;23;20490;-92
2022/03/02 07:23:35;;;;;;;33.07;23.93;;;1.70;99.90;;;;;;5989597;23;20856;-90
2022/03/02 07:26:28;;;;;;;29.47;22.67;;;1.70;99.90;;;;;;5973329;23;20573;-89
2022/03/02 07:29:23;;;;;;;28.40;23.03;;;1.80;99.90;;;;;;5981416;24;20407;-89
2022/03/02 07:32:14;;;;;;;34.47;23.70;;;1.90;99.90;;;;;;5973808;24;20519;-89
2022/03/02 07:35:06;;;;;;;34.57;24.27;;;2.20;99.90;;;;;;5971499;24;20427;-89
2022/03/02 07:37:55;;;;;;;29.00;22.63;;;2.40;99.90;;;;;;5971198;24;20441;-88
2022/03/02 07:40:45;;;;;;;30.47;23.33;;;2.30;99.90;;;;;;5979660;24;20419;-88
2022/03/02 07:43:36;;;;;;;30.43;23.93;;;2.30;99.90;;;;;;5980484;24;20462;-87
2022/03/02 07:46:29;;;;;;;34.83;22.97;;;2.20;99.90;;;;;;6006814;24;20422;-89
2022/03/02 07:49:20;;;;;;;30.47;22.77;;;2.20;99.90;;;;;;6009565;24;20422;-88
2022/03/02 07:52:10;;;;;;;30.00;23.77;;;2.30;99.90;;;;;;5997321;23;20441;-90
2022/03/02 07:55:07;;;;;;;29.23;23.33;;;2.20;99.90;;;;;;5996454;24;20487;-89
2022/03/02 07:57:57;;;;;;;29.10;23.53;;;2.30;99.90;;;;;;6009637;23;20423;-90
2022/03/02 08:00:49;;;;;;;29.93;22.43;;;2.30;99.90;;;;;;6010223;23;20478;-88
2022/03/02 08:03:39;;;;;;;26.37;22.30;;;2.30;99.90;;;;;;5999347;23;20510;-90
2022/03/02 08:06:28;;;;;;;23.33;19.60;;;2.40;99.90;;;;;;6000983;24;20498;-89
2022/03/02 08:09:17;;;;;;;27.97;21.53;;;2.50;99.90;;;;;;6000068;23;20402;-88
2022/03/02 08:12:07;;;;;;;24.70;19.37;;;2.50;99.90;;;;;;6001060;23;20446;-90
2022/03/02 08:14:57;;;;;;;29.20;21.43;;;2.60;99.90;;;;;;6000866;23;20465;-88
2022/03/02 08:17:46;;;;;;;25.30;20.40;;;2.70;99.90;;;;;;6001775;23;20441;-89
2022/03/02 08:20:41;;;;;;;26.43;20.83;;;2.80;99.90;;;;;;6006084;24;20413;-90
2022/03/02 08:23:37;;;;;;;27.03;21.83;;;2.80;99.90;;;;;;6004821;23;20461;-90
2022/03/02 08:26:30;;;;;;;27.30;21.40;;;2.90;99.90;;;;;;6002659;23;20443;-90
2022/03/02 08:29:21;;;;;;;28.40;21.00;;;2.90;99.90;;;;;;6010013;23;20434;-90
2022/03/02 08:32:11;;;;;;;27.47;22.00;;;3.00;99.90;;;;;;6009122;23;20438;-91
2022/03/02 08:35:01;;;;;;;28.57;21.83;;;3.10;99.90;;;;;;6001283;23;20422;-90
2022/03/02 08:37:53;;;;;;;27.87;21.23;;;3.10;99.90;;;;;;6010712;23;20415;-91
2022/03/02 08:40:43;;;;;;;24.50;20.83;;;3.20;99.90;;;;;;6009448;23;20427;-90
2022/03/02 08:43:34;;;;;;;25.33;20.57;;;3.30;99.90;;;;;;5987673;23;20534;-90
2022/03/02 08:46:28;;;;;;;28.57;20.23;;;3.40;99.90;;;;;;5980979;23;20427;-90
2022/03/02 08:49:20;;;;;;;24.80;20.50;;;3.40;99.90;;;;;;5971815;23;20419;-89
2022/03/02 08:52:17;;;;;;;26.23;19.70;;;3.50;99.90;;;;;;5970235;23;20438;-89
2022/03/02 08:55:26;;;;;;;23.37;19.23;;;3.70;99.90;;;;;;6000334;23;20640;-89
2022/03/02 08:58:29;;;;;;;28.20;20.63;;;3.70;99.90;;;;;;6010824;23;20428;-89
2022/03/02 09:01:25;;;;;;;23.30;19.37;;;3.90;99.90;;;;;;6000513;23;20415;-89
2022/03/02 09:04:29;;;;;;;24.97;20.20;;;4.00;99.90;;;;;;5999440;23;20442;-89
2022/03/02 09:07:19;;;;;;;23.83;20.13;;;4.10;99.90;;;;;;6011296;23;20414;-88
2022/03/02 09:10:15;;;;;;;25.50;20.23;;;4.20;99.90;;;;;;6000247;23;20426;-88
2022/03/02 09:13:10;;;;;;;25.50;21.43;;;4.30;99.90;;;;;;6006635;23;20466;-89
2022/03/02 09:16:10;;;;;;;24.10;19.57;;;4.40;99.90;;;;;;6001418;23;20411;-89
2022/03/02 09:19:25;;;;;;;23.43;19.17;;;4.50;99.90;;;;;;6000960;23;20411;-87
2022/03/02 09:22:27;;;;;;;27.60;20.70;;;4.60;99.90;;;;;;6001146;23;20923;-88
2022/03/02 09:25:20;;;;;;;23.70;19.93;;;4.70;99.90;;;;;;5970642;23;20470;-89
2022/03/02 09:28:16;;;;;;;22.67;18.50;;;4.80;99.90;;;;;;5979234;23;20410;-89
2022/03/02 09:31:13;;;;;;;22.80;18.77;;;4.90;99.90;;;;;;5970325;23;20435;-84
2022/03/02 09:34:13;;;;;;;23.07;19.00;;;5.00;99.90;;;;;;5968840;23;20444;-90
2022/03/02 09:37:03;;;;;;;21.77;17.73;;;5.10;99.90;;;;;;5981225;23;20403;-87
2022/03/02 09:40:05;;;;;;;20.00;17.70;;;5.20;99.90;;;;;;5984352;23;20502;-89
2022/03/02 09:43:13;;;;;;;23.13;18.40;;;5.30;99.90;;;;;;5961843;23;20518;-89
2022/03/02 09:46:18;;;;;;;21.47;18.80;;;5.40;99.90;;;;;;5975559;23;20403;-89
2022/03/02 09:49:22;;;;;;;19.80;17.43;;;5.50;99.90;;;;;;5981745;23;20407;-90
2022/03/02 09:52:34;;;;;;;21.73;17.70;;;5.60;99.90;;;;;;5972964;23;20494;-89
2022/03/02 09:55:33;;;;;;;21.50;18.70;;;5.70;99.90;;;;;;5961936;23;20431;-89
2022/03/02 09:58:38;;;;;;;20.03;16.53;;;5.80;99.90;;;;;;5975240;23;20411;-87
2022/03/02 10:01:39;;;;;;;21.90;17.93;;;5.90;99.90;;;;;;5976979;23;20415;-87
2022/03/02 10:04:37;;;;;;;19.67;16.97;;;6.00;99.90;;;;;;5981555;23;20485;-88
2022/03/02 10:07:37;;;;;;;19.77;16.70;;;6.10;99.90;;;;;;5975230;23;20411;-88
2022/03/02 10:10:37;;;;;;;20.80;17.40;;;6.30;99.90;;;;;;5972596;23;20423;-88
2022/03/02 10:13:56;;;;;;;21.40;16.07;;;6.30;99.90;;;;;;5970343;23;20481;-88
2022/03/02 10:16:57;;;;;;;19.47;16.53;;;6.40;99.90;;;;;;5974335;24;20429;-88
2022/03/02 10:20:10;;;;;;;19.70;17.00;;;6.50;99.90;;;;;;5972050;23;20423;-87
2022/03/02 10:23:36;;;;;;;19.57;16.83;;;6.60;99.90;;;;;;5968705;24;20485;-86
2022/03/02 10:26:36;;;;;;;21.97;16.10;;;6.70;99.90;;;;;;5969303;24;20730;-89
2022/03/02 10:29:32;;;;;;;21.40;16.53;;;6.80;99.90;;;;;;5971907;24;20429;-87
2022/03/02 10:32:24;;;;;;;19.93;16.67;;;6.90;99.90;;;;;;5980845;24;20454;-88
2022/03/02 10:35:18;;;;;;;20.50;16.47;;;7.00;99.90;;;;;;5997734;24;20453;-86
2022/03/02 10:38:17;;;;;;;18.63;15.40;;;7.10;99.90;;;;;;5997262;24;20422;-88
2022/03/02 10:41:17;;;;;;;19.13;15.47;;;7.30;99.90;;;;;;5997332;24;20423;-86
2022/03/02 10:44:26;;;;;;;16.13;14.50;;;7.40;99.90;;;;;;5977439;24;20495;-86
2022/03/02 10:47:21;;;;;;;18.80;15.93;;;7.50;99.90;;;;;;5978613;24;20794;-86
2022/03/02 10:50:13;;;;;;;18.57;15.67;;;7.50;99.90;;;;;;5968517;24;20416;-84
2022/03/02 10:53:17;;;;;;;18.70;15.40;;;7.60;99.90;;;;;;5967477;24;20526;-86
2022/03/02 10:56:17;;;;;;;17.90;16.00;;;7.70;99.90;;;;;;5967844;24;20415;-87
2022/03/02 10:59:07;;;;;;;18.53;15.63;;;7.90;99.90;;;;;;5968061;24;20473;-86
2022/03/02 11:01:59;;;;;;;19.43;16.17;;;7.90;99.90;;;;;;5979367;24;20435;-87
2022/03/02 11:04:50;;;;;;;18.97;16.00;;;8.10;99.90;;;;;;5969764;24;20583;-86
2022/03/02 11:07:43;;;;;;;18.83;16.60;;;8.20;99.90;;;;;;5966924;24;20423;-85
2022/03/02 11:10:33;;;;;;;23.60;16.73;;;8.20;99.90;;;;;;5962920;24;20426;-83
2022/03/02 11:13:30;;;;;;;17.00;15.20;;;8.30;99.90;;;;;;5953584;24;20455;-85
2022/03/02 11:16:21;;;;;;;22.33;15.80;;;8.40;99.90;;;;;;5963420;24;20446;-86
2022/03/02 11:19:12;;;;;;;17.63;15.83;;;8.50;99.90;;;;;;5963895;24;20431;-82
2022/03/02 11:22:03;;;;;;;16.73;14.70;;;8.60;99.90;;;;;;5962202;24;20423;-84
2022/03/02 11:25:00;;;;;;;17.43;14.63;;;8.80;99.90;;;;;;5962095;24;20475;-85
2022/03/02 11:27:53;;;;;;;17.53;14.50;;;8.90;99.90;;;;;;5961324;24;20457;-87
2022/03/02 11:30:47;;;;;;;19.77;15.70;;;8.90;99.90;;;;;;5975848;24;20427;-83
2022/03/02 11:33:37;;;;;;;15.60;13.90;;;9.00;99.90;;;;;;5975763;24;20462;-84
2022/03/02 11:36:38;;;;;;;17.03;14.50;;;9.10;99.90;;;;;;5999774;24;20450;-80
2022/03/02 11:39:31;;;;;;;17.83;15.63;;;9.30;99.90;;;;;;5982963;24;20433;-79
2022/03/02 11:42:33;;;;;;;16.50;14.80;;;9.40;99.90;;;;;;5974822;24;20478;-78
2022/03/02 11:45:26;;;;;;;16.50;14.23;;;9.60;99.90;;;;;;5979821;24;20450;-78
2022/03/02 11:48:17;;;;;;;17.07;14.20;;;9.70;99.90;;;;;;5981048;24;20511;-81
2022/03/02 11:51:23;;;;;;;17.27;14.87;;;9.90;99.90;;;;;;5979988;24;20462;-82
2022/03/02 11:54:11;;;;;;;19.23;15.77;;;10.10;99.90;;;;;;5966913;24;20832;-81
2022/03/02 11:57:03;;;;;;;15.17;13.67;;;10.30;99.90;;;;;;5956086;24;20435;-83
2022/03/02 12:00:13;;;;;;;17.07;15.20;;;10.40;99.90;;;;;;5973892;24;20442;-81
2022/03/02 12:03:08;;;;;;;22.70;16.20;;;10.60;99.90;;;;;;5953949;24;20469;-83
2022/03/02 12:06:06;;;;;;;17.33;15.27;;;10.70;99.90;;;;;;5979727;24;20465;-83
2022/03/02 12:08:56;;;;;;;17.73;15.37;;;10.90;99.90;;;;;;5976814;24;20451;-81
2022/03/02 12:11:44;;;;;;;17.87;16.07;;;11.20;99.90;;;;;;5974381;24;20437;-82
2022/03/02 12:14:40;;;;;;;19.10;16.50;;;11.40;99.90;;;;;;5979580;24;20514;-83
2022/03/02 12:17:33;;;;;;;18.10;16.20;;;11.80;99.90;;;;;;5976467;24;20471;-82
2022/03/02 12:20:23;;;;;;;16.87;14.90;;;12.50;99.90;;;;;;5984558;24;20425;-81
2022/03/02 12:23:12;;;;;;;18.60;16.67;;;13.40;99.90;;;;;;5965968;24;20854;-80
2022/03/02 12:26:02;;;;;;;19.00;17.00;;;14.50;99.90;;;;;;5943517;24;20498;-79
2022/03/02 12:28:55;;;;;;;18.37;16.50;;;15.60;99.90;;;;;;5943028;24;20427;-79
2022/03/02 12:31:47;;;;;;;18.10;16.40;;;17.10;99.90;;;;;;5941482;24;20462;-80
2022/03/02 12:34:38;;;;;;;19.07;17.27;;;18.90;98.40;;;;;;5968334;24;20466;-79
2022/03/02 12:37:29;;;;;;;19.37;17.47;;;21.20;92.00;;;;;;5971418;24;21247;-81
2022/03/02 12:40:18;;;;;;;18.80;17.20;;;23.80;78.00;;;;;;5975532;23;20924;-79
2022/03/02 12:43:08;;;;;;;18.73;17.13;;;25.50;66.90;;;;;;5965996;24;20852;-80
2022/03/02 12:45:58;;;;;;;18.97;17.47;;;27.00;58.30;;;;;;5946038;24;20663;-80
2022/03/02 12:48:48;;;;;;;17.93;16.43;;;27.90;56.20;;;;;;5948516;24;20567;-79
2022/03/02 12:51:58;;;;;;;18.97;17.47;;;28.50;53.30;;;;;;5945592;24;20886;-80
2022/03/02 12:54:48;;;;;;;18.87;17.47;;;29.20;51.10;;;;;;5973529;24;21119;-79
2022/03/02 12:57:38;;;;;;;18.77;17.37;;;29.10;48.30;;;;;;5972850;24;20474;-79
2022/03/02 13:00:26;;;;;;;18.07;16.77;;;29.30;48.00;;;;;;5982751;24;20529;-79
2022/03/02 13:03:27;;;;;;;18.10;16.80;;;29.30;47.10;;;;;;5972016;24;21029;-79
2022/03/02 13:06:24;;;;;;;18.57;17.13;;;29.30;45.30;;;;;;5972652;24;20421;-79
2022/03/02 13:09:17;;;;;;;18.30;17.03;;;29.10;45.20;;;;;;5971464;24;20459;-79
2022/03/02 13:12:26;;;;;;;17.50;16.20;;;28.80;44.70;;;;;;5981481;24;20546;-79
2022/03/02 13:15:35;;;;;;;18.00;16.60;;;28.80;45.10;;;;;;5970589;24;20461;-79
2022/03/02 13:18:23;;;;;;;17.60;16.40;;;28.80;45.30;;;;;;5973448;24;20425;-79
2022/03/02 13:21:16;;;;;;;17.90;16.60;;;28.80;45.30;;;;;;5974915;24;20953;-79
2022/03/02 13:24:16;;;;;;;18.73;17.20;;;28.50;45.80;;;;;;5969041;24;20486;-76
2022/03/02 13:27:12;;;;;;;18.23;16.93;;;28.40;44.80;;;;;;5972778;24;20718;-77
2022/03/02 13:30:07;;;;;;;17.90;16.60;;;27.90;44.80;;;;;;5968574;24;20418;-75
2022/03/02 13:33:01;;;;;;;17.73;16.33;;;27.50;46.20;;;;;;5968607;24;20944;-75
2022/03/02 13:36:06;;;;;;;18.47;17.07;;;27.70;45.70;;;;;;5966091;24;20418;-77
2022/03/02 13:39:08;;;;;;;18.30;16.90;;;27.40;45.80;;;;;;5970905;23;20494;-76
2022/03/02 13:41:58;;;;;;;18.90;17.40;;;27.10;46.80;;;;;;5969956;24;20446;-76
2022/03/02 13:44:47;;;;;;;18.47;16.97;;;27.10;46.50;;;;;;5969407;24;20585;-77
2022/03/02 13:47:36;;;;;;;18.43;17.07;;;26.90;45.80;;;;;;5969791;24;20421;-77
2022/03/02 13:50:25;;;;;;;18.50;17.00;;;26.20;46.40;;;;;;5970149;24;20454;-78
2022/03/02 13:53:13;;;;;;;19.67;18.10;;;26.10;47.00;;;;;;5967652;24;20454;-76
2022/03/02 13:56:06;;;;;;;19.17;17.60;;;25.50;47.40;;;;;;5972610;24;20588;-76
2022/03/02 13:59:00;;;;;;;20.23;18.50;;;24.70;46.50;;;;;;5972282;24;20449;-76
2022/03/02 14:01:48;;;;;;;19.73;18.07;;;23.40;52.60;;;;;;5971020;24;20438;-77
2022/03/02 14:04:43;;;;;;;18.47;16.90;;;22.00;53.40;;;;;;5946269;24;20454;-77
2022/03/02 14:07:36;;;;;;;18.80;17.10;;;20.70;52.70;;;;;;5945374;24;20419;-77
2022/03/02 14:10:24;;;;;;;19.13;17.43;;;19.30;55.20;;;;;;5941832;24;20430;-77
2022/03/02 14:13:13;;;;;;;19.70;17.80;;;18.10;57.00;;;;;;5940449;24;20551;-76
2022/03/02 14:16:07;;;;;;;19.03;17.33;;;17.20;55.60;;;;;;5943602;24;20455;-74
2022/03/02 14:19:03;;;;;;;18.40;16.60;;;16.60;59.00;;;;;;5945225;24;20494;-76
2022/03/02 14:21:53;;;;;;;20.40;18.10;;;16.20;60.40;;;;;;5944503;24;20470;-74
2022/03/02 14:24:43;;;;;;;18.60;16.20;;;15.70;58.30;;;;;;5943718;24;20983;-77
2022/03/02 14:27:31;;;;;;;17.57;15.87;;;15.60;63.00;;;;;;5943902;24;20495;-77
2022/03/02 14:30:19;;;;;;;18.97;17.07;;;15.30;62.20;;;;;;5943629;24;20423;-77
2022/03/02 14:33:12;;;;;;;17.90;16.30;;;15.00;62.50;;;;;;5959151;24;20905;-76
2022/03/02 14:36:01;;;;;;;19.47;15.87;;;14.80;63.10;;;;;;5943858;24;20463;-78
2022/03/02 14:38:49;;;;;;;17.47;15.67;;;14.60;65.70;;;;;;5946840;24;20442;-78
2022/03/02 14:41:37;;;;;;;19.57;16.73;;;14.50;69.70;;;;;;5950048;24;20434;-79
2022/03/02 14:44:25;;;;;;;17.50;15.70;;;14.30;65.50;;;;;;5946385;24;20451;-77
2022/03/02 14:47:27;;;;;;;19.83;17.00;;;14.20;70.50;;;;;;5941607;24;20459;-77